createdAt,value
2023-03-10T00:01:44.293Z,3.70
2023-03-10T00:04:12.553Z,3.70
2023-03-10T00:06:41.583Z,3.60
2023-03-10T00:09:12.139Z,3.60
2023-03-10T00:11:39.955Z,3.40
2023-03-10T00:14:08.041Z,3.40
2023-03-10T00:16:35.898Z,3.50
2023-03-10T00:19:05.145Z,3.60
2023-03-10T00:21:33.104Z,3.40
2023-03-10T00:24:00.940Z,3.30
2023-03-10T00:26:29.373Z,3.20
2023-03-10T00:28:57.260Z,3.20
2023-03-10T00:31:26.010Z,3.50
2023-03-10T00:33:53.855Z,3.30
2023-03-10T00:36:23.695Z,3.10
2023-03-10T00:38:51.675Z,3.30
2023-03-10T00:41:20.616Z,3.10
2023-03-10T00:43:48.433Z,3.10
2023-03-10T00:46:16.449Z,3.60
2023-03-10T00:48:44.314Z,3.10
2023-03-10T00:51:12.307Z,3.30
2023-03-10T00:53:41.629Z,3.80
2023-03-10T00:56:11.237Z,3.20
2023-03-10T00:58:39.038Z,3.00
2023-03-10T01:01:11.577Z,3.00
2023-03-10T01:03:39.385Z,2.90
2023-03-10T01:06:07.472Z,3.00
2023-03-10T01:08:35.254Z,3.10
2023-03-10T01:11:04.416Z,3.10
2023-03-10T01:13:32.231Z,2.90
2023-03-10T01:16:00.097Z,2.90
2023-03-10T01:18:27.983Z,3.10
2023-03-10T01:20:55.797Z,3.20
2023-03-10T01:23:24.784Z,3.20
2023-03-10T01:25:52.754Z,3.30
2023-03-10T01:28:21.972Z,3.20
2023-03-10T01:30:49.992Z,2.90
2023-03-10T01:33:18.106Z,2.70
2023-03-10T01:35:46.001Z,2.90
2023-03-10T01:38:13.936Z,2.80
2023-03-10T01:40:41.780Z,2.80
2023-03-10T01:43:18.016Z,2.70
2023-03-10T01:46:22.532Z,2.80
2023-03-10T01:48:51.681Z,2.70
2023-03-10T01:51:19.523Z,2.70
2023-03-10T01:53:47.307Z,2.70
2023-03-10T01:56:15.131Z,2.80
2023-03-10T01:58:45.106Z,2.80
2023-03-10T02:01:13.026Z,2.70
2023-03-10T02:03:42.931Z,2.70
2023-03-10T02:06:12.912Z,2.70
2023-03-10T02:08:44.280Z,2.70
2023-03-10T02:11:12.556Z,2.80
2023-03-10T02:13:40.462Z,2.80
2023-03-10T02:16:08.669Z,2.80
2023-03-10T02:18:36.471Z,2.90
2023-03-10T02:21:07.722Z,3.00
2023-03-10T02:23:45.070Z,3.00
2023-03-10T02:26:18.480Z,2.70
2023-03-10T02:28:47.629Z,2.80
2023-03-10T02:31:15.474Z,2.90
2023-03-10T02:33:44.340Z,2.80
2023-03-10T02:36:14.351Z,3.00
2023-03-10T02:38:42.235Z,3.10
2023-03-10T02:41:15.106Z,3.10
2023-03-10T02:43:42.894Z,3.10
2023-03-10T02:46:12.117Z,3.00
2023-03-10T02:48:40.128Z,3.20
2023-03-10T02:51:09.260Z,3.10
2023-03-10T02:53:37.054Z,3.00
2023-03-10T02:56:05.092Z,2.90
2023-03-10T02:58:47.858Z,3.00
2023-03-10T03:01:17.040Z,3.10
2023-03-10T03:03:44.811Z,3.00
2023-03-10T03:06:12.653Z,3.00
2023-03-10T03:08:41.297Z,2.90
2023-03-10T03:11:09.084Z,3.00
2023-03-10T03:13:36.810Z,2.90
2023-03-10T03:16:06.726Z,2.90
2023-03-10T03:18:35.894Z,2.90
2023-03-10T03:21:06.067Z,2.80
2023-03-10T03:23:34.233Z,2.80
2023-03-10T03:26:01.983Z,3.00
2023-03-10T03:28:30.019Z,3.00
2023-03-10T03:30:57.769Z,3.10
2023-03-10T03:33:25.530Z,3.10
2023-03-10T03:35:54.658Z,3.10
2023-03-10T03:38:22.404Z,3.30
2023-03-10T03:40:50.171Z,3.30
2023-03-10T03:43:17.906Z,3.40
2023-03-10T03:45:45.653Z,3.30
2023-03-10T03:48:14.030Z,3.20
2023-03-10T03:50:41.802Z,3.10
2023-03-10T03:53:10.867Z,3.20
2023-03-10T03:55:38.601Z,3.20
2023-03-10T03:58:06.380Z,3.30
2023-03-10T04:00:35.528Z,3.30
2023-03-10T04:03:03.289Z,3.40
2023-03-10T04:05:31.557Z,3.30
2023-03-10T04:07:59.354Z,3.40
2023-03-10T04:10:29.153Z,3.40
2023-03-10T04:12:56.999Z,3.60
2023-03-10T04:15:24.875Z,3.30
2023-03-10T04:17:52.699Z,3.20
2023-03-10T04:20:20.662Z,3.40
2023-03-10T04:22:48.473Z,3.50
2023-03-10T04:25:16.265Z,3.60
2023-03-10T04:27:45.484Z,3.70
2023-03-10T04:30:14.121Z,3.80
2023-03-10T04:32:42.117Z,3.90
2023-03-10T04:35:12.710Z,3.90
2023-03-10T04:37:40.958Z,3.90
2023-03-10T04:40:11.485Z,3.80
2023-03-10T04:42:39.307Z,3.80
2023-03-10T04:45:09.844Z,3.80
2023-03-10T04:47:37.662Z,3.80
2023-03-10T04:50:06.286Z,3.80
2023-03-10T04:52:34.164Z,3.80
2023-03-10T04:55:01.993Z,3.80
2023-03-10T04:57:29.808Z,4.00
2023-03-10T04:59:57.639Z,4.20
2023-03-10T05:02:26.791Z,4.40
2023-03-10T05:04:54.575Z,4.40
2023-03-10T05:07:22.614Z,4.50
2023-03-10T05:09:50.430Z,4.60
2023-03-10T05:12:18.241Z,4.70
2023-03-10T05:14:46.056Z,4.80
2023-03-10T05:17:13.859Z,4.80
2023-03-10T05:19:43.039Z,4.90
2023-03-10T05:22:12.558Z,4.80
2023-03-10T05:24:40.652Z,4.70
2023-03-10T05:27:08.960Z,4.80
2023-03-10T05:29:38.705Z,4.90
2023-03-10T05:32:07.291Z,4.90
2023-03-10T05:34:35.126Z,4.80
2023-03-10T05:37:04.362Z,4.70
2023-03-10T05:39:32.201Z,4.90
2023-03-10T05:42:00.089Z,4.80
2023-03-10T05:44:27.918Z,4.90
2023-03-10T05:46:55.817Z,4.90
2023-03-10T05:49:23.681Z,5.00
2023-03-10T05:51:52.757Z,5.00
2023-03-10T05:54:21.996Z,5.00
2023-03-10T05:56:49.871Z,5.10
2023-03-10T05:59:17.849Z,5.10
2023-03-10T06:01:45.650Z,5.10
2023-03-10T06:04:13.533Z,5.20
2023-03-10T06:06:41.407Z,5.20
2023-03-10T06:09:09.215Z,5.10
2023-03-10T06:11:38.385Z,5.00
2023-03-10T06:14:06.197Z,5.20
2023-03-10T06:16:34.162Z,5.30
2023-03-10T06:19:02.081Z,5.20
2023-03-10T06:21:29.886Z,5.30
2023-03-10T06:23:57.769Z,5.50
2023-03-10T06:26:25.660Z,5.60
2023-03-10T06:28:54.874Z,5.60
2023-03-10T06:31:24.384Z,5.80
2023-03-10T06:33:52.278Z,5.90
2023-03-10T06:36:20.312Z,5.60
2023-03-10T06:38:48.248Z,5.70
2023-03-10T06:41:16.398Z,5.90
2023-03-10T06:43:44.252Z,6.00
2023-03-10T06:46:14.078Z,6.10
2023-03-10T06:48:42.438Z,6.10
2023-03-10T06:51:11.642Z,6.10
2023-03-10T06:53:39.436Z,6.10
2023-03-10T06:56:08.615Z,6.10
2023-03-10T06:58:37.512Z,6.30
2023-03-10T07:01:05.736Z,6.30
2023-03-10T07:03:34.976Z,6.10
2023-03-10T07:06:02.795Z,6.20
2023-03-10T07:08:30.756Z,6.20
2023-03-10T07:10:58.571Z,6.20
2023-03-10T07:13:26.403Z,6.20
2023-03-10T07:15:54.219Z,6.30
2023-03-10T07:18:22.423Z,6.20
2023-03-10T07:20:53.035Z,6.20
2023-03-10T07:23:20.867Z,6.40
2023-03-10T07:25:52.712Z,6.30
2023-03-10T07:28:20.780Z,6.40
2023-03-10T07:30:49.318Z,6.40
2023-03-10T07:33:17.297Z,6.50
2023-03-10T07:35:45.864Z,6.60
2023-03-10T07:38:15.043Z,6.70
2023-03-10T07:40:42.860Z,6.90
2023-03-10T07:43:10.683Z,7.00
2023-03-10T07:45:38.966Z,7.00
2023-03-10T07:48:07.250Z,7.00
2023-03-10T07:50:35.067Z,7.10
2023-03-10T07:53:02.859Z,7.10
2023-03-10T07:55:32.008Z,7.20
2023-03-10T07:58:00.478Z,7.30
2023-03-10T08:00:28.535Z,7.30
2023-03-10T08:02:56.397Z,7.40
2023-03-10T08:05:24.275Z,7.50
2023-03-10T08:07:52.211Z,7.50
2023-03-10T08:10:20.234Z,7.60
2023-03-10T08:12:49.460Z,7.70
2023-03-10T08:15:17.486Z,7.70
2023-03-10T08:17:45.283Z,7.70
2023-03-10T08:20:13.721Z,7.90
2023-03-10T08:22:41.513Z,8.00
2023-03-10T08:25:10.116Z,8.10
2023-03-10T08:27:37.980Z,8.20
2023-03-10T08:30:08.490Z,8.20
2023-03-10T08:32:36.473Z,8.20
2023-03-10T08:35:05.529Z,8.40
2023-03-10T08:37:33.326Z,8.50
2023-03-10T08:40:01.443Z,8.70
2023-03-10T08:42:29.371Z,8.90
2023-03-10T08:44:57.313Z,9.60
2023-03-10T08:47:29.250Z,10.00
2023-03-10T08:49:58.291Z,10.50
2023-03-10T08:52:26.118Z,10.90
2023-03-10T08:54:53.912Z,11.20
2023-03-10T08:57:22.108Z,11.40
2023-03-10T08:59:51.471Z,11.50
2023-03-10T09:02:21.901Z,11.60
2023-03-10T09:04:51.334Z,11.70
2023-03-10T09:07:19.223Z,11.70
2023-03-10T09:09:47.027Z,11.70
2023-03-10T09:12:14.846Z,11.80
2023-03-10T09:14:42.665Z,11.70
2023-03-10T09:17:11.999Z,11.60
2023-03-10T09:19:40.018Z,11.70
2023-03-10T09:22:09.181Z,11.90
2023-03-10T09:24:36.988Z,12.10
2023-03-10T09:27:04.904Z,12.40
2023-03-10T09:29:43.037Z,12.60
2023-03-10T09:32:11.257Z,13.70
2023-03-10T09:34:39.234Z,13.60
2023-03-10T09:37:08.676Z,13.70
2023-03-10T09:39:37.882Z,13.90
2023-03-10T09:42:29.101Z,14.20
2023-03-10T09:45:24.432Z,14.80
2023-03-10T09:48:06.077Z,15.10
2023-03-10T09:50:35.314Z,15.30
2023-03-10T09:53:07.925Z,15.30
2023-03-10T09:55:47.544Z,15.00
2023-03-10T09:58:19.269Z,14.90
2023-03-10T10:00:47.071Z,14.70
2023-03-10T10:03:18.814Z,14.40
2023-03-10T10:05:46.828Z,14.30
2023-03-10T10:08:19.346Z,14.10
2023-03-10T10:10:49.452Z,13.90
2023-03-10T10:13:17.462Z,13.70
2023-03-10T10:15:46.428Z,13.30
2023-03-10T10:18:20.206Z,13.10
2023-03-10T10:20:50.561Z,12.50
2023-03-10T10:23:22.930Z,11.80
2023-03-10T10:25:52.102Z,11.10
2023-03-10T10:28:22.651Z,10.70
2023-03-10T10:30:50.566Z,10.10
2023-03-10T10:33:18.663Z,9.50
2023-03-10T10:35:47.371Z,8.90
2023-03-10T10:38:26.270Z,8.40
2023-03-10T10:41:01.671Z,8.20
2023-03-10T10:43:29.540Z,8.20
2023-03-10T10:45:58.577Z,8.00
2023-03-10T10:48:39.195Z,7.90
2023-03-10T10:51:10.510Z,7.90
2023-03-10T10:53:38.367Z,8.00
2023-03-10T10:56:14.415Z,8.10
2023-03-10T10:58:42.743Z,8.20
2023-03-10T11:01:12.463Z,8.20
2023-03-10T11:03:40.900Z,8.30
2023-03-10T11:06:16.113Z,8.50
2023-03-10T11:08:50.652Z,8.50
2023-03-10T11:11:23.339Z,8.60
2023-03-10T11:14:05.198Z,8.60
2023-03-10T11:16:36.099Z,8.90
2023-03-10T11:19:08.405Z,9.20
2023-03-10T11:21:37.590Z,9.80
2023-03-10T11:24:08.767Z,10.50
2023-03-10T11:26:45.640Z,11.30
2023-03-10T11:29:19.617Z,12.10
2023-03-10T11:31:50.579Z,12.30
2023-03-10T11:34:22.355Z,12.70
2023-03-10T11:36:57.109Z,12.40
2023-03-10T11:39:29.263Z,12.10
2023-03-10T11:42:01.035Z,11.80
2023-03-10T11:44:30.713Z,11.80
2023-03-10T11:47:01.894Z,11.80
2023-03-10T11:49:31.572Z,11.90
2023-03-10T11:52:00.780Z,11.60
2023-03-10T11:54:30.237Z,11.40
2023-03-10T11:56:59.626Z,11.90
2023-03-10T11:59:27.891Z,12.60
2023-03-10T12:01:57.026Z,12.90
2023-03-10T12:04:26.292Z,13.00
2023-03-10T12:06:56.043Z,13.20
2023-03-10T12:09:31.227Z,12.60
2023-03-10T12:12:00.507Z,12.20
2023-03-10T12:14:28.314Z,12.10
2023-03-10T12:16:56.123Z,12.20
2023-03-10T12:19:23.960Z,12.00
2023-03-10T12:22:33.664Z,12.10
2023-03-10T12:25:01.453Z,12.10
2023-03-10T12:27:30.577Z,12.10
2023-03-10T12:29:58.366Z,12.00
2023-03-10T12:32:47.404Z,11.90
2023-03-10T12:35:37.911Z,11.90
2023-03-10T12:38:32.184Z,11.90
2023-03-10T12:41:00.040Z,12.10
2023-03-10T12:44:04.461Z,12.10
2023-03-10T12:46:45.022Z,12.00
2023-03-10T12:49:22.828Z,11.90
2023-03-10T12:51:52.946Z,11.70
2023-03-10T12:54:38.676Z,11.50
2023-03-10T12:57:09.949Z,11.40
2023-03-10T12:59:40.703Z,11.30
2023-03-10T13:02:27.855Z,11.50
2023-03-10T13:04:59.983Z,11.50
2023-03-10T13:07:27.784Z,11.40
2023-03-10T13:09:55.608Z,11.40
2023-03-10T13:12:27.774Z,11.40
2023-03-10T13:14:57.246Z,11.70
2023-03-10T13:17:27.488Z,11.90
2023-03-10T13:20:05.647Z,11.80
2023-03-10T13:22:33.743Z,11.90
2023-03-10T13:25:03.198Z,11.90
2023-03-10T13:27:32.755Z,11.80
2023-03-10T13:30:03.284Z,11.40
2023-03-10T13:32:33.406Z,11.30
2023-03-10T13:35:13.804Z,11.20
2023-03-10T13:37:41.649Z,10.80
2023-03-10T13:40:10.947Z,10.70
2023-03-10T13:42:44.300Z,10.60
2023-03-10T13:45:21.778Z,10.40
2023-03-10T13:47:50.981Z,10.50
2023-03-10T13:50:19.024Z,10.40
2023-03-10T13:52:53.490Z,10.40
2023-03-10T13:55:21.353Z,10.20
2023-03-10T13:57:49.189Z,10.20
2023-03-10T14:00:18.285Z,10.20
2023-03-10T14:02:46.059Z,10.20
2023-03-10T14:08:07.748Z,10.20
2023-03-10T14:10:35.546Z,10.20
2023-03-10T14:13:03.339Z,10.20
2023-03-10T14:15:36.923Z,10.50
2023-03-10T14:18:22.796Z,10.40
2023-03-10T14:20:50.598Z,10.50
2023-03-10T14:23:27.880Z,10.30
2023-03-10T14:25:56.986Z,10.30
2023-03-10T14:28:26.123Z,10.30
2023-03-10T14:30:54.112Z,10.30
2023-03-10T14:33:22.652Z,10.30
2023-03-10T14:35:50.854Z,10.30
2023-03-10T14:38:18.922Z,10.40
2023-03-10T14:40:48.878Z,10.30
2023-03-10T14:43:17.651Z,10.30
2023-03-10T14:45:45.657Z,10.30
2023-03-10T14:48:14.722Z,10.30
2023-03-10T14:50:42.720Z,10.10
2023-03-10T14:53:10.723Z,10.00
2023-03-10T14:55:38.568Z,9.90
2023-03-10T14:58:07.782Z,9.80
2023-03-10T15:00:35.806Z,9.70
2023-03-10T15:03:06.242Z,9.60
2023-03-10T15:05:47.228Z,9.60
2023-03-10T15:08:16.033Z,9.50
2023-03-10T15:10:46.576Z,9.50
2023-03-10T15:13:15.927Z,9.30
2023-03-10T15:15:44.871Z,9.30
2023-03-10T15:18:13.802Z,9.20
2023-03-10T15:20:41.680Z,9.10
2023-03-10T15:23:09.973Z,9.00
2023-03-10T15:25:37.938Z,8.80
2023-03-10T15:28:05.901Z,8.80
2023-03-10T15:30:35.963Z,8.80
2023-03-10T15:33:03.954Z,8.70
2023-03-10T15:35:31.874Z,8.60
2023-03-10T15:37:59.846Z,8.50
2023-03-10T15:40:28.630Z,8.60
2023-03-10T15:42:57.470Z,8.60
2023-03-10T15:45:25.560Z,8.60
2023-03-10T15:47:54.805Z,8.70
2023-03-10T15:50:22.748Z,8.90
2023-03-10T15:52:51.383Z,9.20
2023-03-10T15:55:19.420Z,9.30
2023-03-10T15:57:49.859Z,9.40
2023-03-10T16:00:18.774Z,9.50
2023-03-10T16:02:46.626Z,9.70
2023-03-10T16:05:15.903Z,9.60
2023-03-10T16:07:43.783Z,9.50
2023-03-10T16:10:12.696Z,9.40
2023-03-10T16:12:40.618Z,9.30
2023-03-10T16:15:09.761Z,9.20
2023-03-10T16:17:37.640Z,9.00
2023-03-10T16:20:11.742Z,9.00
2023-03-10T16:22:42.860Z,8.90
2023-03-10T16:25:13.141Z,8.80
2023-03-10T16:27:40.991Z,8.70
2023-03-10T16:30:10.916Z,8.70
2023-03-10T16:32:38.912Z,8.60
2023-03-10T16:35:08.071Z,8.50
2023-03-10T16:37:35.938Z,8.40
2023-03-10T16:40:07.218Z,8.30
2023-03-10T16:42:36.349Z,8.20
2023-03-10T16:45:04.411Z,8.20
2023-03-10T16:47:32.417Z,8.10
2023-03-10T16:50:00.232Z,7.70
2023-03-10T16:52:28.125Z,7.30
2023-03-10T16:54:58.059Z,7.00
2023-03-10T16:57:27.354Z,6.70
2023-03-10T16:59:55.194Z,6.50
2023-03-10T17:02:23.099Z,6.40
2023-03-10T17:04:50.948Z,6.30
2023-03-10T17:07:19.296Z,6.20
2023-03-10T17:09:47.125Z,6.20
2023-03-10T17:12:15.005Z,6.20
2023-03-10T17:14:44.224Z,6.30
2023-03-10T17:17:12.155Z,6.30
2023-03-10T17:19:40.050Z,6.30
2023-03-10T17:22:08.017Z,6.30
2023-03-10T17:24:35.879Z,6.30
2023-03-10T17:27:03.967Z,6.40
2023-03-10T17:29:31.866Z,6.40
2023-03-10T17:32:01.037Z,6.30
2023-03-10T17:34:29.376Z,6.30
2023-03-10T17:36:57.251Z,6.30
2023-03-10T17:39:27.616Z,6.30
2023-03-10T17:41:55.480Z,6.30
2023-03-10T17:44:23.302Z,6.40
2023-03-10T17:46:52.539Z,6.40
2023-03-10T17:49:21.753Z,6.40
2023-03-10T17:51:49.729Z,6.30
2023-03-10T17:54:20.088Z,6.20
2023-03-10T17:56:48.101Z,6.20
2023-03-10T17:59:16.286Z,6.30
2023-03-10T18:01:44.742Z,6.30
2023-03-10T18:04:12.746Z,6.20
2023-03-10T18:06:41.937Z,6.20
2023-03-10T18:09:12.624Z,6.20
2023-03-10T18:11:40.454Z,6.20
2023-03-10T18:14:08.393Z,6.30
2023-03-10T18:16:37.981Z,6.30
2023-03-10T18:19:05.862Z,6.30
2023-03-10T18:21:33.710Z,6.40
2023-03-10T18:24:03.555Z,6.40
2023-03-10T18:26:31.589Z,6.50
2023-03-10T18:28:59.537Z,6.50
2023-03-10T18:31:28.203Z,6.40
2023-03-10T18:33:56.077Z,6.40
2023-03-10T18:36:24.649Z,6.40
2023-03-10T18:38:52.711Z,6.40
2023-03-10T18:41:22.605Z,6.40
2023-03-10T18:43:50.521Z,6.40
2023-03-10T18:46:18.460Z,6.40
2023-03-10T18:48:46.334Z,6.40
2023-03-10T18:51:14.589Z,6.40
2023-03-10T18:53:42.841Z,6.40
2023-03-10T18:56:11.249Z,6.50
2023-03-10T18:58:40.459Z,6.50
2023-03-10T19:01:11.131Z,6.50
2023-03-10T19:03:39.164Z,6.20
2023-03-10T19:06:07.675Z,6.10
2023-03-10T19:08:35.948Z,5.90
2023-03-10T19:11:03.869Z,5.80
2023-03-10T19:13:31.709Z,5.80
2023-03-10T19:16:00.938Z,5.80
2023-03-10T19:18:28.806Z,5.80
2023-03-10T19:20:59.833Z,5.80
2023-03-10T19:23:27.827Z,5.70
2023-03-10T19:25:55.830Z,5.60
2023-03-10T19:28:23.790Z,5.60
2023-03-10T19:30:51.637Z,5.50
2023-03-10T19:33:20.824Z,5.50
2023-03-10T19:35:48.781Z,5.40
2023-03-10T19:38:16.646Z,5.40
2023-03-10T19:40:46.962Z,5.50
2023-03-10T19:43:14.790Z,5.40
2023-03-10T19:45:42.629Z,5.40
2023-03-10T19:48:10.456Z,5.50
2023-03-10T19:50:39.675Z,5.50
2023-03-10T19:53:07.487Z,5.60
2023-03-10T19:55:36.401Z,5.60
2023-03-10T19:58:04.225Z,5.60
2023-03-10T20:00:36.001Z,5.60
2023-03-10T20:03:04.289Z,5.70
2023-03-10T20:05:33.035Z,5.70
2023-03-10T20:08:02.423Z,5.70
2023-03-10T20:10:30.286Z,5.80
2023-03-10T20:12:58.763Z,5.80
2023-03-10T20:15:26.630Z,5.80
2023-03-10T20:17:54.462Z,5.40
2023-03-10T20:20:22.502Z,4.80
2023-03-10T20:22:50.437Z,4.50
2023-03-10T20:25:20.519Z,4.60
2023-03-10T20:27:49.011Z,4.70
2023-03-10T20:30:18.240Z,4.80
2023-03-10T20:32:46.165Z,4.80
2023-03-10T20:35:14.200Z,4.80
2023-03-10T20:37:42.059Z,4.80
2023-03-10T20:40:11.143Z,4.80
2023-03-10T20:42:40.329Z,4.90
2023-03-10T20:45:09.438Z,4.90
2023-03-10T20:47:37.509Z,4.90
2023-03-10T20:50:06.710Z,4.90
2023-03-10T20:52:35.273Z,4.90
2023-03-10T20:55:03.150Z,4.90
2023-03-10T20:57:30.978Z,5.00
2023-03-10T21:00:00.595Z,5.00
2023-03-10T21:02:28.435Z,5.00
2023-03-10T21:04:56.483Z,5.00
2023-03-10T21:07:24.329Z,4.90
2023-03-10T21:09:52.167Z,4.90
2023-03-10T21:12:21.123Z,4.90
2023-03-10T21:14:48.984Z,5.00
2023-03-10T21:17:18.286Z,5.00
2023-03-10T21:19:46.123Z,5.00
2023-03-10T21:22:13.968Z,5.00
2023-03-10T21:24:41.807Z,5.00
2023-03-10T21:27:10.049Z,5.00
2023-03-10T21:29:37.884Z,5.00
2023-03-10T21:32:05.898Z,5.00
2023-03-10T21:34:35.092Z,5.00
2023-03-10T21:37:02.946Z,4.90
2023-03-10T21:39:30.757Z,4.90
2023-03-10T21:41:58.607Z,4.90
2023-03-10T21:44:26.603Z,4.90
2023-03-10T21:46:54.456Z,5.00
2023-03-10T21:49:22.309Z,5.00
2023-03-10T21:51:51.546Z,5.00
2023-03-10T21:54:19.435Z,5.00
2023-03-10T21:56:47.436Z,5.00
2023-03-10T21:59:16.584Z,5.00
2023-03-10T22:01:44.456Z,5.10
2023-03-10T22:04:12.598Z,5.10
2023-03-10T22:06:40.475Z,5.10
2023-03-10T22:09:09.660Z,5.20
2023-03-10T22:11:37.544Z,5.20
2023-03-10T22:14:05.427Z,5.20
2023-03-10T22:16:33.260Z,5.20
2023-03-10T22:19:01.104Z,5.20
2023-03-10T22:21:28.931Z,5.20
2023-03-10T22:23:56.775Z,5.00
2023-03-10T22:26:25.939Z,4.80
2023-03-10T22:28:53.879Z,4.50
2023-03-10T22:31:22.271Z,4.40
2023-03-10T22:33:50.151Z,4.20
2023-03-10T22:36:18.880Z,4.30
2023-03-10T22:38:46.710Z,4.10
2023-03-10T22:41:14.527Z,3.80
2023-03-10T22:43:43.739Z,3.40
2023-03-10T22:46:11.970Z,3.20
2023-03-10T22:48:40.012Z,3.30
2023-03-10T22:51:08.881Z,3.20
2023-03-10T22:53:38.122Z,3.20
2023-03-10T22:56:06.357Z,3.20
2023-03-10T22:58:34.194Z,3.20
2023-03-10T23:01:03.374Z,3.20
2023-03-10T23:03:32.055Z,3.30
2023-03-10T23:06:01.688Z,3.30
2023-03-10T23:08:29.606Z,3.30
2023-03-10T23:10:57.424Z,3.40
2023-03-10T23:13:25.258Z,3.40
2023-03-10T23:15:53.103Z,3.50
2023-03-10T23:18:22.402Z,3.50
2023-03-10T23:20:50.322Z,3.50
2023-03-10T23:23:19.047Z,3.50
2023-03-10T23:25:47.819Z,3.50
2023-03-10T23:28:16.248Z,3.60
2023-03-10T23:30:44.626Z,3.60
2023-03-10T23:33:13.088Z,3.60
2023-03-10T23:35:42.321Z,3.70
2023-03-10T23:38:10.165Z,3.70
2023-03-10T23:40:38.074Z,3.70
2023-03-10T23:43:06.839Z,3.70
2023-03-10T23:45:35.931Z,3.50
2023-03-10T23:48:04.723Z,3.30
2023-03-10T23:50:33.667Z,3.10
2023-03-10T23:53:03.086Z,2.90
2023-03-10T23:55:33.026Z,2.80
2023-03-10T23:58:00.876Z,2.80
